sensor_id;sensor_type;location;lat;lon;timestamp;temperature;humidity
28548;DHT22;15750;49.600;8.746;2022-10-30T00:02:16;21.40;57.70
28548;DHT22;15750;49.600;8.746;2022-10-30T00:05:03;21.40;57.80
28548;DHT22;15750;49.600;8.746;2022-10-30T00:07:53;21.40;57.70
28548;DHT22;15750;49.600;8.746;2022-10-30T00:10:41;21.40;57.70
28548;DHT22;15750;49.600;8.746;2022-10-30T00:13:29;21.40;57.70
28548;DHT22;15750;49.600;8.746;2022-10-30T00:16:16;21.40;57.80
28548;DHT22;15750;49.600;8.746;2022-10-30T00:19:03;21.40;57.70
28548;DHT22;15750;49.600;8.746;2022-10-30T00:21:50;21.40;57.50
28548;DHT22;15750;49.600;8.746;2022-10-30T00:24:39;21.40;57.50
28548;DHT22;15750;49.600;8.746;2022-10-30T00:27:26;21.40;57.50
28548;DHT22;15750;49.600;8.746;2022-10-30T00:30:13;21.40;57.50
28548;DHT22;15750;49.600;8.746;2022-10-30T00:33:01;21.40;57.40
28548;DHT22;15750;49.600;8.746;2022-10-30T00:35:48;21.40;57.40
28548;DHT22;15750;49.600;8.746;2022-10-30T00:38:36;21.40;57.30
28548;DHT22;15750;49.600;8.746;2022-10-30T00:41:24;21.40;57.30
28548;DHT22;15750;49.600;8.746;2022-10-30T00:44:37;21.30;57.40
28548;DHT22;15750;49.600;8.746;2022-10-30T00:47:30;21.40;57.50
28548;DHT22;15750;49.600;8.746;2022-10-30T00:50:23;21.30;57.40
28548;DHT22;15750;49.600;8.746;2022-10-30T00:53:18;21.30;57.90
28548;DHT22;15750;49.600;8.746;2022-10-30T00:56:08;21.30;57.50
28548;DHT22;15750;49.600;8.746;2022-10-30T00:59:01;21.30;57.40
28548;DHT22;15750;49.600;8.746;2022-10-30T01:01:51;21.30;57.30
28548;DHT22;15750;49.600;8.746;2022-10-30T01:04:40;21.30;57.10
28548;DHT22;15750;49.600;8.746;2022-10-30T01:07:29;21.30;57.00
28548;DHT22;15750;49.600;8.746;2022-10-30T01:10:17;21.30;57.10
28548;DHT22;15750;49.600;8.746;2022-10-30T01:13:05;21.30;57.20
28548;DHT22;15750;49.600;8.746;2022-10-30T01:16:08;21.30;57.20
28548;DHT22;15750;49.600;8.746;2022-10-30T01:19:07;21.30;57.20
28548;DHT22;15750;49.600;8.746;2022-10-30T01:22:10;21.30;57.10
28548;DHT22;15750;49.600;8.746;2022-10-30T01:25:14;21.30;57.00
28548;DHT22;15750;49.600;8.746;2022-10-30T01:28:39;21.20;57.00
28548;DHT22;15750;49.600;8.746;2022-10-30T01:31:43;21.30;57.00
28548;DHT22;15750;49.600;8.746;2022-10-30T01:34:50;21.30;57.20
28548;DHT22;15750;49.600;8.746;2022-10-30T01:37:49;21.20;56.90
28548;DHT22;15750;49.600;8.746;2022-10-30T01:40:42;21.30;56.90
28548;DHT22;15750;49.600;8.746;2022-10-30T01:43:30;21.20;56.90
28548;DHT22;15750;49.600;8.746;2022-10-30T01:46:40;21.20;57.00
28548;DHT22;15750;49.600;8.746;2022-10-30T01:49:54;21.20;56.80
28548;DHT22;15750;49.600;8.746;2022-10-30T01:52:56;21.20;56.80
28548;DHT22;15750;49.600;8.746;2022-10-30T01:55:53;21.20;56.60
28548;DHT22;15750;49.600;8.746;2022-10-30T01:58:49;21.20;56.60
28548;DHT22;15750;49.600;8.746;2022-10-30T02:01:42;21.20;56.50
28548;DHT22;15750;49.600;8.746;2022-10-30T02:04:30;21.20;56.50
28548;DHT22;15750;49.600;8.746;2022-10-30T02:07:18;21.10;56.50
28548;DHT22;15750;49.600;8.746;2022-10-30T02:10:10;21.10;56.50
28548;DHT22;15750;49.600;8.746;2022-10-30T02:12:58;21.10;56.50
28548;DHT22;15750;49.600;8.746;2022-10-30T02:15:47;21.10;56.50
28548;DHT22;15750;49.600;8.746;2022-10-30T02:18:38;21.00;56.40
28548;DHT22;15750;49.600;8.746;2022-10-30T02:21:27;21.00;56.30
28548;DHT22;15750;49.600;8.746;2022-10-30T02:24:15;21.00;56.50
28548;DHT22;15750;49.600;8.746;2022-10-30T02:27:02;21.00;56.50
28548;DHT22;15750;49.600;8.746;2022-10-30T02:29:49;21.00;56.50
28548;DHT22;15750;49.600;8.746;2022-10-30T02:32:36;21.00;56.40
28548;DHT22;15750;49.600;8.746;2022-10-30T02:35:24;21.00;56.50
28548;DHT22;15750;49.600;8.746;2022-10-30T02:38:15;21.00;56.40
28548;DHT22;15750;49.600;8.746;2022-10-30T02:41:03;21.00;56.50
28548;DHT22;15750;49.600;8.746;2022-10-30T02:43:50;20.90;56.40
28548;DHT22;15750;49.600;8.746;2022-10-30T02:46:37;20.90;56.40
28548;DHT22;15750;49.600;8.746;2022-10-30T02:49:25;20.90;56.30
28548;DHT22;15750;49.600;8.746;2022-10-30T02:52:12;20.90;56.30
28548;DHT22;15750;49.600;8.746;2022-10-30T02:55:01;20.90;56.30
28548;DHT22;15750;49.600;8.746;2022-10-30T02:57:48;20.90;56.10
28548;DHT22;15750;49.600;8.746;2022-10-30T03:00:36;20.90;56.20
28548;DHT22;15750;49.600;8.746;2022-10-30T03:03:23;20.90;56.20
28548;DHT22;15750;49.600;8.746;2022-10-30T03:06:12;20.90;56.30
28548;DHT22;15750;49.600;8.746;2022-10-30T03:09:01;20.80;56.20
28548;DHT22;15750;49.600;8.746;2022-10-30T03:11:51;20.80;56.10
28548;DHT22;15750;49.600;8.746;2022-10-30T03:14:41;20.80;56.10
28548;DHT22;15750;49.600;8.746;2022-10-30T03:17:28;20.80;56.10
28548;DHT22;15750;49.600;8.746;2022-10-30T03:20:16;20.80;56.30
28548;DHT22;15750;49.600;8.746;2022-10-30T03:23:03;20.80;56.20
28548;DHT22;15750;49.600;8.746;2022-10-30T03:25:52;20.70;56.10
28548;DHT22;15750;49.600;8.746;2022-10-30T03:28:41;20.70;56.10
28548;DHT22;15750;49.600;8.746;2022-10-30T03:31:30;20.70;56.00
28548;DHT22;15750;49.600;8.746;2022-10-30T03:34:36;20.70;56.00
28548;DHT22;15750;49.600;8.746;2022-10-30T03:37:25;20.70;56.10
28548;DHT22;15750;49.600;8.746;2022-10-30T03:40:13;20.70;56.00
28548;DHT22;15750;49.600;8.746;2022-10-30T03:43:00;20.70;56.20
28548;DHT22;15750;49.600;8.746;2022-10-30T03:45:50;20.70;56.30
28548;DHT22;15750;49.600;8.746;2022-10-30T03:48:38;20.70;56.30
28548;DHT22;15750;49.600;8.746;2022-10-30T03:51:26;20.70;56.50
28548;DHT22;15750;49.600;8.746;2022-10-30T03:54:14;20.70;56.60
28548;DHT22;15750;49.600;8.746;2022-10-30T03:57:01;20.70;56.40
28548;DHT22;15750;49.600;8.746;2022-10-30T03:59:57;20.70;56.30
28548;DHT22;15750;49.600;8.746;2022-10-30T04:03:01;20.70;56.10
28548;DHT22;15750;49.600;8.746;2022-10-30T04:05:49;20.70;56.00
28548;DHT22;15750;49.600;8.746;2022-10-30T04:08:38;20.70;55.80
28548;DHT22;15750;49.600;8.746;2022-10-30T04:11:25;20.70;55.70
28548;DHT22;15750;49.600;8.746;2022-10-30T04:14:13;20.70;55.70
28548;DHT22;15750;49.600;8.746;2022-10-30T04:17:00;20.70;55.80
28548;DHT22;15750;49.600;8.746;2022-10-30T04:19:48;20.70;55.80
28548;DHT22;15750;49.600;8.746;2022-10-30T04:22:36;20.70;55.60
28548;DHT22;15750;49.600;8.746;2022-10-30T04:25:23;20.70;55.90
28548;DHT22;15750;49.600;8.746;2022-10-30T04:28:11;20.60;55.80
28548;DHT22;15750;49.600;8.746;2022-10-30T04:31:00;20.60;55.70
28548;DHT22;15750;49.600;8.746;2022-10-30T04:33:49;20.60;55.60
28548;DHT22;15750;49.600;8.746;2022-10-30T04:36:38;20.60;55.40
28548;DHT22;15750;49.600;8.746;2022-10-30T04:39:25;20.60;55.50
28548;DHT22;15750;49.600;8.746;2022-10-30T04:42:20;20.60;55.60
28548;DHT22;15750;49.600;8.746;2022-10-30T04:45:08;20.60;55.50
28548;DHT22;15750;49.600;8.746;2022-10-30T04:48:01;20.60;55.50
28548;DHT22;15750;49.600;8.746;2022-10-30T04:50:49;20.60;55.80
28548;DHT22;15750;49.600;8.746;2022-10-30T04:53:43;20.50;55.80
28548;DHT22;15750;49.600;8.746;2022-10-30T04:56:33;20.50;55.70
28548;DHT22;15750;49.600;8.746;2022-10-30T04:59:21;20.50;55.70
28548;DHT22;15750;49.600;8.746;2022-10-30T05:02:10;20.60;55.70
28548;DHT22;15750;49.600;8.746;2022-10-30T05:04:59;20.60;55.60
28548;DHT22;15750;49.600;8.746;2022-10-30T05:07:46;20.50;55.60
28548;DHT22;15750;49.600;8.746;2022-10-30T05:10:39;20.50;55.50
28548;DHT22;15750;49.600;8.746;2022-10-30T05:13:26;20.50;55.20
28548;DHT22;15750;49.600;8.746;2022-10-30T05:16:13;20.50;55.30
28548;DHT22;15750;49.600;8.746;2022-10-30T05:19:01;20.50;55.40
28548;DHT22;15750;49.600;8.746;2022-10-30T05:21:48;20.50;55.40
28548;DHT22;15750;49.600;8.746;2022-10-30T05:24:36;20.50;55.50
28548;DHT22;15750;49.600;8.746;2022-10-30T05:27:24;20.50;55.40
28548;DHT22;15750;49.600;8.746;2022-10-30T05:30:12;20.50;55.40
28548;DHT22;15750;49.600;8.746;2022-10-30T05:33:01;20.50;55.30
28548;DHT22;15750;49.600;8.746;2022-10-30T05:35:50;20.50;55.00
28548;DHT22;15750;49.600;8.746;2022-10-30T05:38:37;20.50;55.10
28548;DHT22;15750;49.600;8.746;2022-10-30T05:41:30;20.50;55.10
28548;DHT22;15750;49.600;8.746;2022-10-30T05:44:19;20.40;54.90
28548;DHT22;15750;49.600;8.746;2022-10-30T05:47:26;20.40;54.80
28548;DHT22;15750;49.600;8.746;2022-10-30T05:50:14;20.40;54.80
28548;DHT22;15750;49.600;8.746;2022-10-30T05:53:13;20.40;54.80
28548;DHT22;15750;49.600;8.746;2022-10-30T05:56:01;20.40;55.20
28548;DHT22;15750;49.600;8.746;2022-10-30T05:58:52;20.40;55.40
28548;DHT22;15750;49.600;8.746;2022-10-30T06:01:41;20.40;55.70
28548;DHT22;15750;49.600;8.746;2022-10-30T06:04:15;20.40;55.90
28548;DHT22;15750;49.600;8.746;2022-10-30T06:06:43;20.40;55.70
28548;DHT22;15750;49.600;8.746;2022-10-30T06:09:12;20.40;55.40
28548;DHT22;15750;49.600;8.746;2022-10-30T06:11:54;20.40;55.30
28548;DHT22;15750;49.600;8.746;2022-10-30T06:15:03;20.40;55.10
28548;DHT22;15750;49.600;8.746;2022-10-30T06:17:34;20.40;55.00
28548;DHT22;15750;49.600;8.746;2022-10-30T06:20:22;20.40;54.70
28548;DHT22;15750;49.600;8.746;2022-10-30T06:23:20;20.40;55.40
28548;DHT22;15750;49.600;8.746;2022-10-30T06:25:55;20.40;54.80
28548;DHT22;15750;49.600;8.746;2022-10-30T06:28:34;20.40;54.90
28548;DHT22;15750;49.600;8.746;2022-10-30T06:31:04;20.40;54.70
28548;DHT22;15750;49.600;8.746;2022-10-30T06:33:38;20.30;55.60
28548;DHT22;15750;49.600;8.746;2022-10-30T06:36:08;20.30;54.90
28548;DHT22;15750;49.600;8.746;2022-10-30T06:38:37;20.30;55.10
28548;DHT22;15750;49.600;8.746;2022-10-30T06:41:07;20.30;55.00
28548;DHT22;15750;49.600;8.746;2022-10-30T06:44:04;20.30;54.90
28548;DHT22;15750;49.600;8.746;2022-10-30T06:46:35;20.40;55.00
28548;DHT22;15750;49.600;8.746;2022-10-30T06:49:05;20.30;54.90
28548;DHT22;15750;49.600;8.746;2022-10-30T06:51:34;20.30;54.70
28548;DHT22;15750;49.600;8.746;2022-10-30T06:54:04;20.30;54.70
28548;DHT22;15750;49.600;8.746;2022-10-30T06:56:52;20.30;54.80
28548;DHT22;15750;49.600;8.746;2022-10-30T06:59:41;20.30;55.10
28548;DHT22;15750;49.600;8.746;2022-10-30T07:02:25;20.30;55.10
28548;DHT22;15750;49.600;8.746;2022-10-30T07:04:59;20.30;55.20
28548;DHT22;15750;49.600;8.746;2022-10-30T07:07:28;20.30;55.00
28548;DHT22;15750;49.600;8.746;2022-10-30T07:09:57;20.30;55.00
28548;DHT22;15750;49.600;8.746;2022-10-30T07:13:04;20.30;55.10
28548;DHT22;15750;49.600;8.746;2022-10-30T07:15:42;20.30;55.00
28548;DHT22;15750;49.600;8.746;2022-10-30T07:18:23;20.30;54.90
28548;DHT22;15750;49.600;8.746;2022-10-30T07:20:57;20.30;55.00
28548;DHT22;15750;49.600;8.746;2022-10-30T07:23:26;20.30;55.00
28548;DHT22;15750;49.600;8.746;2022-10-30T07:26:05;20.30;55.10
28548;DHT22;15750;49.600;8.746;2022-10-30T07:28:36;20.30;55.20
28548;DHT22;15750;49.600;8.746;2022-10-30T07:31:32;20.30;55.30
28548;DHT22;15750;49.600;8.746;2022-10-30T07:34:08;20.30;55.40
28548;DHT22;15750;49.600;8.746;2022-10-30T07:36:48;20.30;55.50
28548;DHT22;15750;49.600;8.746;2022-10-30T07:39:49;20.30;55.70
28548;DHT22;15750;49.600;8.746;2022-10-30T07:42:41;20.30;55.90
28548;DHT22;15750;49.600;8.746;2022-10-30T07:45:28;20.30;56.00
28548;DHT22;15750;49.600;8.746;2022-10-30T07:48:33;20.40;56.10
28548;DHT22;15750;49.600;8.746;2022-10-30T07:51:07;20.40;56.30
28548;DHT22;15750;49.600;8.746;2022-10-30T07:53:38;20.40;56.40
28548;DHT22;15750;49.600;8.746;2022-10-30T07:56:08;20.50;56.60
28548;DHT22;15750;49.600;8.746;2022-10-30T07:58:52;20.50;56.50
28548;DHT22;15750;49.600;8.746;2022-10-30T08:01:39;20.50;56.50
28548;DHT22;15750;49.600;8.746;2022-10-30T08:04:21;20.50;56.40
28548;DHT22;15750;49.600;8.746;2022-10-30T08:07:03;20.60;56.50
28548;DHT22;15750;49.600;8.746;2022-10-30T08:09:33;20.60;56.50
28548;DHT22;15750;49.600;8.746;2022-10-30T08:12:02;20.60;56.60
28548;DHT22;15750;49.600;8.746;2022-10-30T08:14:31;20.60;56.50
28548;DHT22;15750;49.600;8.746;2022-10-30T08:17:01;20.70;56.70
28548;DHT22;15750;49.600;8.746;2022-10-30T08:19:31;20.70;56.60
28548;DHT22;15750;49.600;8.746;2022-10-30T08:22:00;20.70;56.60
28548;DHT22;15750;49.600;8.746;2022-10-30T08:24:33;20.70;56.60
28548;DHT22;15750;49.600;8.746;2022-10-30T08:27:03;20.80;56.70
28548;DHT22;15750;49.600;8.746;2022-10-30T08:29:31;20.80;56.70
28548;DHT22;15750;49.600;8.746;2022-10-30T08:32:02;20.80;56.70
28548;DHT22;15750;49.600;8.746;2022-10-30T08:34:53;20.90;56.80
28548;DHT22;15750;49.600;8.746;2022-10-30T08:37:21;20.90;56.70
28548;DHT22;15750;49.600;8.746;2022-10-30T08:39:51;20.90;56.80
28548;DHT22;15750;49.600;8.746;2022-10-30T08:42:49;20.90;56.90
28548;DHT22;15750;49.600;8.746;2022-10-30T08:45:18;20.90;57.00
28548;DHT22;15750;49.600;8.746;2022-10-30T08:48:04;20.90;57.00
28548;DHT22;15750;49.600;8.746;2022-10-30T08:50:37;21.00;57.10
28548;DHT22;15750;49.600;8.746;2022-10-30T08:53:09;21.00;57.20
28548;DHT22;15750;49.600;8.746;2022-10-30T08:55:40;21.10;57.30
28548;DHT22;15750;49.600;8.746;2022-10-30T08:58:19;21.10;57.40
28548;DHT22;15750;49.600;8.746;2022-10-30T09:00:48;21.20;57.50
28548;DHT22;15750;49.600;8.746;2022-10-30T09:03:16;21.20;57.50
28548;DHT22;15750;49.600;8.746;2022-10-30T09:06:04;21.20;57.60
28548;DHT22;15750;49.600;8.746;2022-10-30T09:08:51;21.30;57.70
28548;DHT22;15750;49.600;8.746;2022-10-30T09:11:32;21.30;57.70
28548;DHT22;15750;49.600;8.746;2022-10-30T09:14:01;21.30;57.90
28548;DHT22;15750;49.600;8.746;2022-10-30T09:16:29;21.40;57.90
28548;DHT22;15750;49.600;8.746;2022-10-30T09:18:58;21.40;58.00
28548;DHT22;15750;49.600;8.746;2022-10-30T09:21:26;21.50;58.10
28548;DHT22;15750;49.600;8.746;2022-10-30T09:23:55;21.50;58.10
28548;DHT22;15750;49.600;8.746;2022-10-30T09:26:34;21.50;58.20
28548;DHT22;15750;49.600;8.746;2022-10-30T09:29:17;21.60;58.30
28548;DHT22;15750;49.600;8.746;2022-10-30T09:32:01;21.70;58.30
28548;DHT22;15750;49.600;8.746;2022-10-30T09:34:42;21.70;58.30
28548;DHT22;15750;49.600;8.746;2022-10-30T09:37:23;21.80;58.40
28548;DHT22;15750;49.600;8.746;2022-10-30T09:39:58;21.80;58.30
28548;DHT22;15750;49.600;8.746;2022-10-30T09:42:39;21.80;58.40
28548;DHT22;15750;49.600;8.746;2022-10-30T09:51:56;22.00;58.40
28548;DHT22;15750;49.600;8.746;2022-10-30T09:54:50;22.00;58.40
28548;DHT22;15750;49.600;8.746;2022-10-30T09:57:31;22.00;58.50
28548;DHT22;15750;49.600;8.746;2022-10-30T10:00:07;22.10;58.70
28548;DHT22;15750;49.600;8.746;2022-10-30T10:02:55;22.10;58.60
28548;DHT22;15750;49.600;8.746;2022-10-30T10:05:42;22.10;58.70
28548;DHT22;15750;49.600;8.746;2022-10-30T10:08:36;22.20;58.70
28548;DHT22;15750;49.600;8.746;2022-10-30T10:11:28;22.20;58.70
28548;DHT22;15750;49.600;8.746;2022-10-30T10:14:05;22.30;58.90
28548;DHT22;15750;49.600;8.746;2022-10-30T10:16:38;22.30;59.10
28548;DHT22;15750;49.600;8.746;2022-10-30T10:19:13;22.30;59.10
28548;DHT22;15750;49.600;8.746;2022-10-30T10:21:48;22.40;59.50
28548;DHT22;15750;49.600;8.746;2022-10-30T10:24:22;22.40;59.20
28548;DHT22;15750;49.600;8.746;2022-10-30T10:26:56;22.40;59.20
28548;DHT22;15750;49.600;8.746;2022-10-30T10:29:40;22.40;59.20
28548;DHT22;15750;49.600;8.746;2022-10-30T10:35:48;22.50;59.20
28548;DHT22;15750;49.600;8.746;2022-10-30T10:38:34;22.60;59.30
28548;DHT22;15750;49.600;8.746;2022-10-30T10:41:17;22.60;59.60
28548;DHT22;15750;49.600;8.746;2022-10-30T10:44:03;22.60;59.90
28548;DHT22;15750;49.600;8.746;2022-10-30T10:46:50;22.60;59.80
28548;DHT22;15750;49.600;8.746;2022-10-30T10:49:40;22.70;59.70
28548;DHT22;15750;49.600;8.746;2022-10-30T10:52:18;22.70;59.60
28548;DHT22;15750;49.600;8.746;2022-10-30T10:54:52;22.70;59.70
28548;DHT22;15750;49.600;8.746;2022-10-30T10:57:26;22.70;59.70
28548;DHT22;15750;49.600;8.746;2022-10-30T11:00:01;22.80;59.70
28548;DHT22;15750;49.600;8.746;2022-10-30T11:02:38;22.80;59.70
28548;DHT22;15750;49.600;8.746;2022-10-30T11:05:15;22.80;59.70
28548;DHT22;15750;49.600;8.746;2022-10-30T11:07:49;22.80;59.60
28548;DHT22;15750;49.600;8.746;2022-10-30T11:10:19;22.80;59.50
28548;DHT22;15750;49.600;8.746;2022-10-30T11:12:49;22.80;59.40
28548;DHT22;15750;49.600;8.746;2022-10-30T11:15:32;22.80;59.40
28548;DHT22;15750;49.600;8.746;2022-10-30T11:18:07;22.90;59.70
28548;DHT22;15750;49.600;8.746;2022-10-30T11:20:41;22.90;59.50
28548;DHT22;15750;49.600;8.746;2022-10-30T11:23:32;22.90;60.30
28548;DHT22;15750;49.600;8.746;2022-10-30T11:26:31;22.90;59.80
28548;DHT22;15750;49.600;8.746;2022-10-30T11:29:04;22.90;59.80
28548;DHT22;15750;49.600;8.746;2022-10-30T11:31:34;22.90;59.60
28548;DHT22;15750;49.600;8.746;2022-10-30T11:34:19;22.90;59.50
28548;DHT22;15750;49.600;8.746;2022-10-30T11:36:53;22.90;59.70
28548;DHT22;15750;49.600;8.746;2022-10-30T11:39:23;22.90;59.50
28548;DHT22;15750;49.600;8.746;2022-10-30T11:42:02;23.00;59.60
28548;DHT22;15750;49.600;8.746;2022-10-30T11:44:35;23.00;59.80
28548;DHT22;15750;49.600;8.746;2022-10-30T11:47:05;23.00;59.70
28548;DHT22;15750;49.600;8.746;2022-10-30T11:49:42;23.00;59.70
28548;DHT22;15750;49.600;8.746;2022-10-30T11:52:14;23.00;59.90
28548;DHT22;15750;49.600;8.746;2022-10-30T11:54:46;23.00;59.80
28548;DHT22;15750;49.600;8.746;2022-10-30T11:57:22;23.00;59.80
28548;DHT22;15750;49.600;8.746;2022-10-30T11:59:54;23.00;60.00
28548;DHT22;15750;49.600;8.746;2022-10-30T12:02:41;23.00;60.00
28548;DHT22;15750;49.600;8.746;2022-10-30T12:05:33;23.00;60.00
28548;DHT22;15750;49.600;8.746;2022-10-30T12:08:19;23.00;60.10
28548;DHT22;15750;49.600;8.746;2022-10-30T12:11:00;23.00;59.90
28548;DHT22;15750;49.600;8.746;2022-10-30T12:13:35;23.10;59.80
28548;DHT22;15750;49.600;8.746;2022-10-30T12:16:08;23.00;59.50
28548;DHT22;15750;49.600;8.746;2022-10-30T12:18:41;23.10;59.60
28548;DHT22;15750;49.600;8.746;2022-10-30T12:21:22;23.10;59.50
28548;DHT22;15750;49.600;8.746;2022-10-30T12:23:54;23.10;59.40
28548;DHT22;15750;49.600;8.746;2022-10-30T12:26:25;23.10;59.30
28548;DHT22;15750;49.600;8.746;2022-10-30T12:28:57;23.10;59.30
28548;DHT22;15750;49.600;8.746;2022-10-30T12:31:36;23.10;59.30
28548;DHT22;15750;49.600;8.746;2022-10-30T12:34:33;23.10;59.20
28548;DHT22;15750;49.600;8.746;2022-10-30T12:37:11;23.10;59.20
28548;DHT22;15750;49.600;8.746;2022-10-30T12:39:48;23.10;59.20
28548;DHT22;15750;49.600;8.746;2022-10-30T12:42:22;23.10;59.00
28548;DHT22;15750;49.600;8.746;2022-10-30T12:44:59;23.10;59.00
28548;DHT22;15750;49.600;8.746;2022-10-30T12:47:39;23.10;59.00
28548;DHT22;15750;49.600;8.746;2022-10-30T12:50:17;23.10;58.90
28548;DHT22;15750;49.600;8.746;2022-10-30T12:52:54;23.10;58.80
28548;DHT22;15750;49.600;8.746;2022-10-30T12:55:32;23.10;58.70
28548;DHT22;15750;49.600;8.746;2022-10-30T12:58:08;23.20;58.60
28548;DHT22;15750;49.600;8.746;2022-10-30T13:00:48;23.10;58.40
28548;DHT22;15750;49.600;8.746;2022-10-30T13:03:23;23.10;58.40
28548;DHT22;15750;49.600;8.746;2022-10-30T13:05:59;23.20;58.40
28548;DHT22;15750;49.600;8.746;2022-10-30T13:08:33;23.20;58.40
28548;DHT22;15750;49.600;8.746;2022-10-30T13:11:10;23.20;58.30
28548;DHT22;15750;49.600;8.746;2022-10-30T13:13:47;23.10;58.10
28548;DHT22;15750;49.600;8.746;2022-10-30T13:16:20;23.20;58.20
28548;DHT22;15750;49.600;8.746;2022-10-30T13:18:54;23.20;58.10
28548;DHT22;15750;49.600;8.746;2022-10-30T13:21:28;23.10;57.90
28548;DHT22;15750;49.600;8.746;2022-10-30T13:24:03;23.20;57.90
28548;DHT22;15750;49.600;8.746;2022-10-30T13:26:38;23.10;57.70
28548;DHT22;15750;49.600;8.746;2022-10-30T13:29:22;23.20;57.70
28548;DHT22;15750;49.600;8.746;2022-10-30T13:32:02;23.10;57.60
28548;DHT22;15750;49.600;8.746;2022-10-30T13:34:40;23.10;57.70
28548;DHT22;15750;49.600;8.746;2022-10-30T13:37:21;23.10;57.60
28548;DHT22;15750;49.600;8.746;2022-10-30T13:40:03;23.20;57.60
28548;DHT22;15750;49.600;8.746;2022-10-30T13:42:51;23.10;57.50
28548;DHT22;15750;49.600;8.746;2022-10-30T13:49:11;23.10;57.40
28548;DHT22;15750;49.600;8.746;2022-10-30T13:51:51;23.20;57.30
28548;DHT22;15750;49.600;8.746;2022-10-30T13:54:27;23.20;57.30
28548;DHT22;15750;49.600;8.746;2022-10-30T13:57:03;23.10;57.40
28548;DHT22;15750;49.600;8.746;2022-10-30T13:59:46;23.10;57.20
28548;DHT22;15750;49.600;8.746;2022-10-30T14:02:41;23.10;57.30
28548;DHT22;15750;49.600;8.746;2022-10-30T14:05:29;23.10;57.50
28548;DHT22;15750;49.600;8.746;2022-10-30T14:08:06;23.10;57.40
28548;DHT22;15750;49.600;8.746;2022-10-30T14:10:46;23.10;57.50
28548;DHT22;15750;49.600;8.746;2022-10-30T14:13:25;23.10;57.60
28548;DHT22;15750;49.600;8.746;2022-10-30T14:15:58;23.10;57.40
28548;DHT22;15750;49.600;8.746;2022-10-30T14:18:42;23.10;57.40
28548;DHT22;15750;49.600;8.746;2022-10-30T14:24:25;23.10;57.60
28548;DHT22;15750;49.600;8.746;2022-10-30T14:27:09;23.10;57.60
28548;DHT22;15750;49.600;8.746;2022-10-30T14:29:45;23.10;57.80
28548;DHT22;15750;49.600;8.746;2022-10-30T14:32:48;23.10;57.70
28548;DHT22;15750;49.600;8.746;2022-10-30T14:35:38;23.10;57.90
28548;DHT22;15750;49.600;8.746;2022-10-30T14:38:24;23.10;58.10
28548;DHT22;15750;49.600;8.746;2022-10-30T14:47:47;23.10;58.10
28548;DHT22;15750;49.600;8.746;2022-10-30T14:50:55;23.10;57.90
28548;DHT22;15750;49.600;8.746;2022-10-30T14:53:43;23.10;58.10
28548;DHT22;15750;49.600;8.746;2022-10-30T14:56:26;23.10;58.00
28548;DHT22;15750;49.600;8.746;2022-10-30T14:59:24;23.10;58.00
28548;DHT22;15750;49.600;8.746;2022-10-30T15:02:21;23.10;58.10
28548;DHT22;15750;49.600;8.746;2022-10-30T15:05:08;23.10;58.00
28548;DHT22;15750;49.600;8.746;2022-10-30T15:07:53;23.10;58.00
28548;DHT22;15750;49.600;8.746;2022-10-30T15:10:27;23.10;57.70
28548;DHT22;15750;49.600;8.746;2022-10-30T15:13:08;23.10;57.60
28548;DHT22;15750;49.600;8.746;2022-10-30T15:15:40;23.10;58.10
28548;DHT22;15750;49.600;8.746;2022-10-30T15:18:15;23.10;57.40
28548;DHT22;15750;49.600;8.746;2022-10-30T15:20:49;23.10;57.30
28548;DHT22;15750;49.600;8.746;2022-10-30T15:23:23;23.10;57.30
28548;DHT22;15750;49.600;8.746;2022-10-30T15:25:58;23.10;57.30
28548;DHT22;15750;49.600;8.746;2022-10-30T15:28:36;23.10;57.00
28548;DHT22;15750;49.600;8.746;2022-10-30T15:31:07;23.10;57.00
28548;DHT22;15750;49.600;8.746;2022-10-30T15:33:49;23.10;57.00
28548;DHT22;15750;49.600;8.746;2022-10-30T15:36:19;23.10;57.10
28548;DHT22;15750;49.600;8.746;2022-10-30T15:39:08;23.10;57.10
28548;DHT22;15750;49.600;8.746;2022-10-30T15:41:41;23.10;57.20
28548;DHT22;15750;49.600;8.746;2022-10-30T15:44:13;23.10;57.20
28548;DHT22;15750;49.600;8.746;2022-10-30T15:46:49;23.10;57.20
28548;DHT22;15750;49.600;8.746;2022-10-30T15:49:28;23.10;57.20
28548;DHT22;15750;49.600;8.746;2022-10-30T15:51:59;23.10;57.20
28548;DHT22;15750;49.600;8.746;2022-10-30T15:54:29;23.10;57.30
28548;DHT22;15750;49.600;8.746;2022-10-30T15:56:59;23.10;57.30
28548;DHT22;15750;49.600;8.746;2022-10-30T15:59:50;23.00;57.20
28548;DHT22;15750;49.600;8.746;2022-10-30T16:02:22;23.10;57.30
28548;DHT22;15750;49.600;8.746;2022-10-30T16:04:54;23.00;57.20
28548;DHT22;15750;49.600;8.746;2022-10-30T16:07:25;23.00;57.10
28548;DHT22;15750;49.600;8.746;2022-10-30T16:09:55;23.00;57.20
28548;DHT22;15750;49.600;8.746;2022-10-30T16:12:27;23.00;57.10
28548;DHT22;15750;49.600;8.746;2022-10-30T16:15:06;23.00;57.00
28548;DHT22;15750;49.600;8.746;2022-10-30T16:17:42;23.00;57.00
28548;DHT22;15750;49.600;8.746;2022-10-30T16:20:13;23.00;56.90
28548;DHT22;15750;49.600;8.746;2022-10-30T16:22:42;22.90;57.50
28548;DHT22;15750;49.600;8.746;2022-10-30T16:25:11;22.90;56.80
28548;DHT22;15750;49.600;8.746;2022-10-30T16:27:44;22.90;56.80
28548;DHT22;15750;49.600;8.746;2022-10-30T16:30:14;22.90;56.70
28548;DHT22;15750;49.600;8.746;2022-10-30T16:32:49;22.90;56.60
28548;DHT22;15750;49.600;8.746;2022-10-30T16:35:22;22.90;56.80
28548;DHT22;15750;49.600;8.746;2022-10-30T16:37:51;22.80;56.80
28548;DHT22;15750;49.600;8.746;2022-10-30T16:40:23;22.90;57.00
28548;DHT22;15750;49.600;8.746;2022-10-30T16:42:55;22.80;57.10
28548;DHT22;15750;49.600;8.746;2022-10-30T16:45:44;22.80;57.10
28548;DHT22;15750;49.600;8.746;2022-10-30T16:48:19;22.80;57.20
28548;DHT22;15750;49.600;8.746;2022-10-30T16:51:02;22.80;57.20
28548;DHT22;15750;49.600;8.746;2022-10-30T16:53:32;22.80;57.20
28548;DHT22;15750;49.600;8.746;2022-10-30T16:56:00;22.80;57.20
28548;DHT22;15750;49.600;8.746;2022-10-30T16:58:30;22.70;57.10
28548;DHT22;15750;49.600;8.746;2022-10-30T17:01:04;22.70;57.10
28548;DHT22;15750;49.600;8.746;2022-10-30T17:03:36;22.70;57.20
28548;DHT22;15750;49.600;8.746;2022-10-30T17:06:25;22.70;57.20
28548;DHT22;15750;49.600;8.746;2022-10-30T17:08:57;22.60;57.20
28548;DHT22;15750;49.600;8.746;2022-10-30T17:11:34;22.60;57.10
28548;DHT22;15750;49.600;8.746;2022-10-30T17:14:18;22.60;57.10
28548;DHT22;15750;49.600;8.746;2022-10-30T17:16:52;22.60;57.00
28548;DHT22;15750;49.600;8.746;2022-10-30T17:19:45;22.60;57.00
28548;DHT22;15750;49.600;8.746;2022-10-30T17:22:18;22.60;57.00
28548;DHT22;15750;49.600;8.746;2022-10-30T17:24:47;22.60;57.00
28548;DHT22;15750;49.600;8.746;2022-10-30T17:27:29;22.60;57.10
28548;DHT22;15750;49.600;8.746;2022-10-30T17:30:31;22.50;57.10